Time;durP1;ratioP1;P1;durP2;ratioP2;P2;SDS_P1;SDS_P2;PMS_P1;PMS_P2;Temp;Humidity;BMP_temperature;BMP_pressure;BME280_temperature;BME280_humidity;BME280_pressure;Samples;Min_cycle;Max_cycle;Signal;HPM_P1;HPM_P2
2021/08/18 00:12:11;;;;;;;10.55;4.80;;;;;;;;;;4244242;33;20183;-78
2021/08/18 00:24:05;;;;;;;9.68;6.03;;;;;;;;;;4256170;33;20261;-78
2021/08/18 00:27:08;;;;;;;8.60;4.68;;;;;;;;;;4244771;33;20184;-78
2021/08/18 00:30:06;;;;;;;8.63;5.00;;;;;;;;;;4287235;33;20164;-78
2021/08/18 00:39:53;;;;;;;;;;;;;;;;;;;;;
2021/08/18 00:51:26;;;;;;;10.00;4.57;;;;;;;;;;4256435;33;20194;-78
2021/08/18 01:16:53;;;;;;;;;;;;;;;;;;;;;
2021/08/18 01:28:55;;;;;;;;;;;;;;;;;;;;;
2021/08/18 01:31:28;;;;;;;9.88;5.35;;;;;;;;;;4224093;33;20165;-79
2021/08/18 01:34:35;;;;;;;;;;;;;;;;;;;;;
2021/08/18 01:37:35;;;;;;;7.55;4.53;;;;;;;;;;4287167;33;20157;-78
2021/08/18 01:49:06;;;;;;;11.35;5.05;;;;;;;;;;4330465;33;20210;-78
2021/08/18 01:51:58;;;;;;;12.32;4.80;;;;;;;;;;4330412;33;20152;-79
2021/08/18 01:54:35;;;;;;;8.90;4.75;;;;;;;;;;4319775;33;20187;-78
2021/08/18 02:09:47;;;;;;;9.80;5.72;;;;;;;;;;4330088;33;20190;-78
2021/08/18 02:13:15;;;;;;;;;;;;;;;;;;;;;
2021/08/18 02:31:10;;;;;;;;;;;;;;;;;;;;;
2021/08/18 02:55:34;;;;;;;10.57;6.78;;;;;;;;;;4257728;33;20180;-78
2021/08/18 02:58:54;;;;;;;;;;;;;;;;;;;;;
2021/08/18 03:01:03;;;;;;;11.98;6.22;;;;;;;;;;4247228;33;20575;-78
2021/08/18 03:04:32;;;;;;;8.02;5.18;;;;;;;;;;4314133;33;20226;-78
2021/08/18 03:13:41;;;;;;;;;;;;;;;;;;;;;
2021/08/18 03:19:37;;;;;;;12.68;7.60;;;;;;;;;;4243111;33;20173;-78
2021/08/18 03:22:27;;;;;;;12.60;7.55;;;;;;;;;;4266705;33;20179;-79
2021/08/18 03:25:24;;;;;;;14.40;8.10;;;;;;;;;;4271042;33;20579;-78
2021/08/18 03:28:06;;;;;;;14.82;8.77;;;;;;;;;;4270603;33;20294;-78
2021/08/18 03:34:18;;;;;;;11.35;7.12;;;;;;;;;;4243174;33;20279;-79
2021/08/18 03:56:20;;;;;;;;;;;;;;;;;;;;;
2021/08/18 04:02:10;;;;;;;6.62;4.22;;;;;;;;;;4187110;34;20214;-78
2021/08/18 04:11:18;;;;;;;9.35;4.82;;;;;;;;;;4187220;34;20173;-77
2021/08/18 04:14:15;;;;;;;;;;;;;;;;;;;;;
2021/08/18 04:34:47;;;;;;;;;;;;;;;;;;;;;
2021/08/18 04:37:47;;;;;;;;;;;;;;;;;;;;;
2021/08/18 04:41:20;;;;;;;;;;;;;;;;;;;;;
2021/08/18 04:47:37;;;;;;;;;;;;;;;;;;;;;
2021/08/18 04:50:26;;;;;;;;;;;;;;;;;;;;;
2021/08/18 04:53:30;;;;;;;11.95;6.32;;;;;;;;;;4217010;34;20143;-78
2021/08/18 04:56:27;;;;;;;;;;;;;;;;;;;;;
2021/08/18 05:21:09;;;;;;;;;;;;;;;;;;;;;
2021/08/18 05:24:13;;;;;;;;;;;;;;;;;;;;;
2021/08/18 05:30:08;;;;;;;;;;;;;;;;;;;;;
2021/08/18 05:32:52;;;;;;;8.32;3.85;;;;;;;;;;4243812;33;20627;-79
2021/08/18 05:35:25;;;;;;;7.28;3.97;;;;;;;;;;4244394;33;20205;-78
2021/08/18 05:38:08;;;;;;;5.50;3.65;;;;;;;;;;4255350;33;20196;-78
2021/08/18 05:40:33;;;;;;;5.78;3.70;;;;;;;;;;4286850;33;20172;-79
2021/08/18 05:43:37;;;;;;;6.28;3.45;;;;;;;;;;4314322;33;20172;-78
2021/08/18 05:46:52;;;;;;;;;;;;;;;;;;;;;
2021/08/18 05:49:22;;;;;;;8.18;4.00;;;;;;;;;;4313527;33;20258;-78
2021/08/18 05:52:09;;;;;;;11.57;4.65;;;;;;;;;;4315763;33;20215;-79
2021/08/18 05:55:00;;;;;;;7.53;4.20;;;;;;;;;;4303765;33;20174;-78
2021/08/18 05:57:32;;;;;;;8.88;4.18;;;;;;;;;;4304684;33;20250;-79
2021/08/18 06:00:35;;;;;;;7.40;4.07;;;;;;;;;;4328146;33;20194;-79
2021/08/18 06:06:41;;;;;;;;;;;;;;;;;;;;;
2021/08/18 06:09:37;;;;;;;;;;;;;;;;;;;;;
2021/08/18 06:12:03;;;;;;;11.70;4.50;;;;;;;;;;4272291;33;20148;-78
2021/08/18 06:14:36;;;;;;;8.50;4.28;;;;;;;;;;4297099;33;20160;-78
2021/08/18 06:17:31;;;;;;;;;;;;;;;;;;;;;
2021/08/18 06:20:07;;;;;;;7.65;4.60;;;;;;;;;;4331968;33;20160;-79
2021/08/18 06:28:30;;;;;;;8.95;4.68;;;;;;;;;;4324873;33;20174;-79
2021/08/18 06:31:17;;;;;;;7.75;5.07;;;;;;;;;;4342342;33;20264;-79
2021/08/18 06:34:36;;;;;;;11.23;5.25;;;;;;;;;;4331031;33;20197;-78
2021/08/18 06:36:42;;;;;;;11.48;4.87;;;;;;;;;;4329630;32;20608;-78
2021/08/18 06:46:00;;;;;;;9.43;5.82;;;;;;;;;;4276489;33;20231;-79
2021/08/18 06:54:53;;;;;;;;;;;;;;;;;;;;;
2021/08/18 06:57:23;;;;;;;10.40;5.25;;;;;;;;;;4299873;33;20159;-78
2021/08/18 06:59:48;;;;;;;9.82;5.60;;;;;;;;;;4328491;33;20499;-78
2021/08/18 07:02:13;;;;;;;6.97;4.53;;;;;;;;;;4342678;32;20455;-78
2021/08/18 07:04:42;;;;;;;8.48;5.10;;;;;;;;;;4342671;32;20517;-79
2021/08/18 07:07:08;;;;;;;7.07;4.65;;;;;;;;;;4344323;32;20159;-78
2021/08/18 07:09:33;;;;;;;9.07;5.28;;;;;;;;;;4349145;32;20148;-78
2021/08/18 07:12:23;;;;;;;7.15;5.30;;;;;;;;;;4346006;33;20163;-78
2021/08/18 07:14:58;;;;;;;;;;;;;;;;;;;;;
2021/08/18 07:17:29;;;;;;;9.48;5.43;;;;;;;;;;4345343;33;20622;-80
2021/08/18 07:19:55;;;;;;;8.95;5.70;;;;;;;;;;4344771;33;20174;-79
2021/08/18 07:22:36;;;;;;;9.65;5.55;;;;;;;;;;4344373;33;20179;-79
2021/08/18 07:25:02;;;;;;;9.32;5.05;;;;;;;;;;4344155;33;20159;-79
2021/08/18 07:27:43;;;;;;;8.75;6.20;;;;;;;;;;4344326;33;20202;-80
2021/08/18 07:30:12;;;;;;;8.82;5.40;;;;;;;;;;4345016;33;20532;-79
2021/08/18 07:32:40;;;;;;;9.10;5.50;;;;;;;;;;4347215;33;20178;-78
2021/08/18 07:35:19;;;;;;;9.95;5.75;;;;;;;;;;4332557;33;20200;-79
2021/08/18 07:37:53;;;;;;;9.98;5.82;;;;;;;;;;4344060;33;20528;-78
2021/08/18 07:40:25;;;;;;;12.37;6.68;;;;;;;;;;4353837;32;20166;-78
2021/08/18 07:43:01;;;;;;;8.57;5.40;;;;;;;;;;4332290;33;20151;-80
2021/08/18 07:45:33;;;;;;;10.07;6.03;;;;;;;;;;4332285;33;20189;-78
2021/08/18 07:48:12;;;;;;;6.37;5.10;;;;;;;;;;4332639;33;20167;-78
2021/08/18 07:50:40;;;;;;;7.55;5.78;;;;;;;;;;4332397;33;20238;-76
2021/08/18 07:53:12;;;;;;;8.20;6.22;;;;;;;;;;4332236;33;20191;-79
2021/08/18 07:55:45;;;;;;;10.65;6.35;;;;;;;;;;4358750;33;20163;-79
2021/08/18 07:58:32;;;;;;;9.27;6.32;;;;;;;;;;4347092;33;20193;-79
2021/08/18 08:01:07;;;;;;;;;;;;;;;;;;;;;
2021/08/18 08:03:33;;;;;;;7.40;6.10;;;;;;;;;;4350538;33;20177;-79
2021/08/18 08:05:59;;;;;;;10.00;6.03;;;;;;;;;;4331784;33;20160;-78
2021/08/18 08:08:24;;;;;;;9.15;6.07;;;;;;;;;;4344599;33;20193;-78
2021/08/18 08:11:08;;;;;;;9.93;5.87;;;;;;;;;;4344984;33;20176;-79
2021/08/18 08:13:36;;;;;;;10.48;5.82;;;;;;;;;;4362435;32;20699;-78
2021/08/18 08:16:20;;;;;;;;;;;;;;;;;;;;;
2021/08/18 08:18:46;;;;;;;10.48;6.37;;;;;;;;;;4363637;32;20212;-78
2021/08/18 08:21:43;;;;;;;10.48;6.62;;;;;;;;;;4349371;33;20156;-78
2021/08/18 08:24:20;;;;;;;8.75;5.97;;;;;;;;;;4360563;33;20209;-80
2021/08/18 08:26:46;;;;;;;9.75;6.90;;;;;;;;;;4361543;32;20250;-79
2021/08/18 08:29:34;;;;;;;7.78;6.00;;;;;;;;;;4361310;33;20225;-77
2021/08/18 08:32:24;;;;;;;8.85;5.87;;;;;;;;;;4346884;33;20547;-79
2021/08/18 08:38:08;;;;;;;12.15;7.70;;;;;;;;;;4346477;33;20593;-77
2021/08/18 08:40:47;;;;;;;13.57;8.02;;;;;;;;;;4346792;33;20186;-76
2021/08/18 08:43:13;;;;;;;10.30;6.80;;;;;;;;;;4346220;33;20202;-77
2021/08/18 08:45:46;;;;;;;10.57;7.28;;;;;;;;;;4346504;33;20168;-77
2021/08/18 08:48:28;;;;;;;11.95;8.13;;;;;;;;;;4358787;32;20230;-78
2021/08/18 08:50:53;;;;;;;12.93;8.18;;;;;;;;;;4358883;33;20629;-80
2021/08/18 08:53:28;;;;;;;16.95;8.95;;;;;;;;;;4346204;33;20156;-78
2021/08/18 08:56:05;;;;;;;12.57;8.85;;;;;;;;;;4345328;33;20225;-79
2021/08/18 08:58:31;;;;;;;14.60;9.05;;;;;;;;;;4342728;33;20147;-78
2021/08/18 09:01:07;;;;;;;17.08;11.18;;;;;;;;;;4345550;33;20222;-78
2021/08/18 09:03:41;;;;;;;12.75;9.68;;;;;;;;;;4358672;33;20197;-78
2021/08/18 09:06:07;;;;;;;13.25;10.63;;;;;;;;;;4356001;33;20207;-79
2021/08/18 09:08:34;;;;;;;14.95;9.45;;;;;;;;;;4345032;33;20190;-78
2021/08/18 09:11:30;;;;;;;16.87;11.40;;;;;;;;;;4358022;32;20178;-78
2021/08/18 09:14:14;;;;;;;16.23;11.30;;;;;;;;;;4345346;33;20218;-77
2021/08/18 09:16:42;;;;;;;13.60;11.32;;;;;;;;;;4340552;33;20195;-79
2021/08/18 09:19:42;;;;;;;17.98;11.88;;;;;;;;;;4330960;33;20225;-78
2021/08/18 09:22:08;;;;;;;13.10;10.15;;;;;;;;;;4318908;33;20195;-78
2021/08/18 09:27:28;;;;;;;15.27;10.85;;;;;;;;;;4330715;33;20175;-77
2021/08/18 09:30:09;;;;;;;13.95;9.02;;;;;;;;;;4310419;33;20163;-79
2021/08/18 09:36:25;;;;;;;15.30;9.15;;;;;;;;;;4286824;33;20273;-77
2021/08/18 09:39:13;;;;;;;13.98;9.45;;;;;;;;;;4276760;33;20227;-78
2021/08/18 09:41:51;;;;;;;13.68;8.55;;;;;;;;;;4326716;33;20219;-78
2021/08/18 09:44:34;;;;;;;;;;;;;;;;;;;;;
2021/08/18 09:50:07;;;;;;;16.17;8.70;;;;;;;;;;4334647;33;20217;-79
2021/08/18 09:52:57;;;;;;;12.02;7.62;;;;;;;;;;4345708;33;20164;-77
2021/08/18 09:55:43;;;;;;;;;;;;;;;;;;;;;
2021/08/18 09:58:28;;;;;;;11.05;7.22;;;;;;;;;;4347429;33;20170;-78
2021/08/18 10:04:29;;;;;;;11.93;6.50;;;;;;;;;;4328715;33;20151;-78
2021/08/18 10:10:23;;;;;;;12.05;5.78;;;;;;;;;;4334140;33;20218;-78
2021/08/18 10:16:05;;;;;;;11.10;5.68;;;;;;;;;;4332224;33;20158;-78
2021/08/18 10:21:44;;;;;;;8.80;5.55;;;;;;;;;;4300960;33;20168;-78
2021/08/18 10:24:30;;;;;;;13.02;4.90;;;;;;;;;;4345007;33;20581;-79
2021/08/18 10:33:42;;;;;;;;;;;;;;;;;;;;;
2021/08/18 10:36:11;;;;;;;10.38;4.95;;;;;;;;;;4344308;33;20491;-78
2021/08/18 10:39:15;;;;;;;9.10;4.50;;;;;;;;;;4333240;33;20191;-77
2021/08/18 10:42:02;;;;;;;9.05;4.80;;;;;;;;;;4271522;33;20156;-77
2021/08/18 10:45:07;;;;;;;;;;;;;;;;;;;;;
2021/08/18 10:50:40;;;;;;;7.50;4.32;;;;;;;;;;4309638;33;20231;-78
2021/08/18 10:53:26;;;;;;;9.38;4.80;;;;;;;;;;4314426;33;20288;-78
2021/08/18 10:56:20;;;;;;;9.45;5.12;;;;;;;;;;4313845;33;20195;-77
2021/08/18 10:59:07;;;;;;;9.63;5.45;;;;;;;;;;4301198;33;20270;-77
2021/08/18 11:01:51;;;;;;;8.93;5.53;;;;;;;;;;4312867;33;20180;-79
2021/08/18 11:04:36;;;;;;;8.70;4.32;;;;;;;;;;4313558;33;20222;-75
2021/08/18 11:10:31;;;;;;;7.55;4.20;;;;;;;;;;4309524;33;20157;-78
2021/08/18 11:13:26;;;;;;;;;;;;;;;;;;;;;
2021/08/18 11:25:02;;;;;;;7.62;3.80;;;;;;;;;;4271424;33;20147;-77
2021/08/18 11:27:58;;;;;;;;;;;;;;;;;;;;;
2021/08/18 11:30:32;;;;;;;8.57;3.50;;;;;;;;;;4266789;33;20173;-78
2021/08/18 11:36:53;;;;;;;;;;;;;;;;;;;;;
2021/08/18 11:39:06;;;;;;;5.35;3.10;;;;;;;;;;4269108;33;20180;-78
2021/08/18 11:41:36;;;;;;;5.72;3.03;;;;;;;;;;4270601;33;20196;-77
2021/08/18 11:44:32;;;;;;;4.85;3.40;;;;;;;;;;4284655;33;20176;-80
2021/08/18 11:47:23;;;;;;;;;;;;;;;;;;;;;
2021/08/18 11:49:49;;;;;;;4.68;2.62;;;;;;;;;;4312230;33;20151;-78
2021/08/18 11:52:24;;;;;;;4.18;2.87;;;;;;;;;;4329363;33;20451;-77
2021/08/18 11:55:00;;;;;;;5.40;3.28;;;;;;;;;;4330543;33;20159;-76
2021/08/18 11:57:28;;;;;;;6.37;3.12;;;;;;;;;;4340947;33;20218;-77
2021/08/18 12:00:02;;;;;;;3.95;3.05;;;;;;;;;;4329422;33;20155;-78
2021/08/18 12:02:35;;;;;;;5.75;3.03;;;;;;;;;;4318177;33;20167;-79
2021/08/18 12:05:15;;;;;;;;;;;;;;;;;;;;;
2021/08/18 12:07:52;;;;;;;6.85;3.45;;;;;;;;;;4338031;33;20159;-79
2021/08/18 12:10:26;;;;;;;5.47;3.58;;;;;;;;;;4346095;33;20135;-78
2021/08/18 12:13:14;;;;;;;5.20;3.00;;;;;;;;;;4344243;33;20194;-78
2021/08/18 12:15:44;;;;;;;4.53;2.78;;;;;;;;;;4326499;33;20237;-77
2021/08/18 12:18:51;;;;;;;5.53;3.10;;;;;;;;;;4331967;33;20159;-77
2021/08/18 12:21:15;;;;;;;4.32;3.00;;;;;;;;;;4345065;33;20247;-78
2021/08/18 12:23:40;;;;;;;5.62;3.47;;;;;;;;;;4343703;33;20163;-77
2021/08/18 12:26:26;;;;;;;5.62;3.10;;;;;;;;;;4344117;33;20254;-78
2021/08/18 12:28:59;;;;;;;6.32;3.30;;;;;;;;;;4344186;33;20160;-77
2021/08/18 12:32:04;;;;;;;5.28;3.50;;;;;;;;;;4343425;33;20647;-78
2021/08/18 12:34:48;;;;;;;5.12;3.50;;;;;;;;;;4327312;33;20176;-78
2021/08/18 12:37:18;;;;;;;6.57;4.50;;;;;;;;;;4329037;33;20268;-77
2021/08/18 12:40:01;;;;;;;8.07;3.83;;;;;;;;;;4328912;33;20644;-77
2021/08/18 12:42:33;;;;;;;8.60;3.75;;;;;;;;;;4328935;33;20225;-76
2021/08/18 12:45:13;;;;;;;7.80;4.22;;;;;;;;;;4323869;33;20168;-78
2021/08/18 12:48:02;;;;;;;7.80;4.53;;;;;;;;;;4316134;33;20198;-78
2021/08/18 12:50:32;;;;;;;7.35;3.53;;;;;;;;;;4315172;33;20187;-78
2021/08/18 12:52:58;;;;;;;6.53;4.10;;;;;;;;;;4328725;33;20189;-79
2021/08/18 12:55:24;;;;;;;6.87;3.72;;;;;;;;;;4307619;33;20175;-77
2021/08/18 12:57:49;;;;;;;7.05;4.45;;;;;;;;;;4319528;33;20168;-77
2021/08/18 13:00:14;;;;;;;6.62;4.05;;;;;;;;;;4331483;33;20213;-76
2021/08/18 13:02:40;;;;;;;7.20;4.68;;;;;;;;;;4332165;33;20186;-75
2021/08/18 13:05:06;;;;;;;7.72;4.62;;;;;;;;;;4331453;33;20203;-78
2021/08/18 13:07:34;;;;;;;8.70;4.12;;;;;;;;;;4331577;33;20163;-78
2021/08/18 13:10:11;;;;;;;8.95;5.18;;;;;;;;;;4330577;33;20176;-79
2021/08/18 13:12:40;;;;;;;7.55;4.40;;;;;;;;;;4317303;33;20195;-78
2021/08/18 13:18:25;;;;;;;6.60;3.80;;;;;;;;;;4324869;33;20156;-78
2021/08/18 13:20:51;;;;;;;5.80;3.70;;;;;;;;;;4331625;33;20274;-78
2021/08/18 13:23:18;;;;;;;5.47;3.70;;;;;;;;;;4330894;33;20199;-77
2021/08/18 13:26:05;;;;;;;6.87;3.65;;;;;;;;;;4331567;33;20211;-78
2021/08/18 13:28:55;;;;;;;7.50;3.90;;;;;;;;;;4331722;33;20218;-79
2021/08/18 13:31:29;;;;;;;5.18;3.37;;;;;;;;;;4338929;33;20164;-79
2021/08/18 13:33:55;;;;;;;8.50;3.87;;;;;;;;;;4348879;33;20639;-77
2021/08/18 13:36:24;;;;;;;4.43;3.12;;;;;;;;;;4337374;33;20589;-78
2021/08/18 13:38:59;;;;;;;;;;;;;;;;;;;;;
2021/08/18 13:41:39;;;;;;;5.37;3.70;;;;;;;;;;4347848;33;20174;-78
2021/08/18 13:44:04;;;;;;;8.48;3.65;;;;;;;;;;4333611;33;20609;-78
2021/08/18 13:46:32;;;;;;;8.88;4.07;;;;;;;;;;4334655;33;20171;-77
2021/08/18 13:49:35;;;;;;;8.05;4.03;;;;;;;;;;4347750;32;20383;-80
2021/08/18 13:52:00;;;;;;;7.15;3.45;;;;;;;;;;4347864;33;20178;-78
2021/08/18 13:54:33;;;;;;;4.75;3.58;;;;;;;;;;4348250;33;20240;-79
2021/08/18 13:56:58;;;;;;;7.22;4.47;;;;;;;;;;4348301;33;20205;-78
2021/08/18 13:59:30;;;;;;;6.30;3.20;;;;;;;;;;4347964;33;20168;-78
2021/08/18 14:02:16;;;;;;;4.18;3.30;;;;;;;;;;4348692;33;20160;-79
2021/08/18 14:04:44;;;;;;;5.18;3.62;;;;;;;;;;4341209;33;20163;-78
2021/08/18 14:07:36;;;;;;;6.45;4.25;;;;;;;;;;4345237;33;20159;-78
2021/08/18 14:10:27;;;;;;;6.65;3.85;;;;;;;;;;4331083;33;20474;-78
2021/08/18 14:12:54;;;;;;;6.05;3.97;;;;;;;;;;4360296;32;20163;-77
2021/08/18 14:15:32;;;;;;;7.82;3.47;;;;;;;;;;4343912;33;21018;-78
2021/08/18 14:18:07;;;;;;;5.72;3.80;;;;;;;;;;4361038;32;20151;-79
2021/08/18 14:21:05;;;;;;;5.18;3.12;;;;;;;;;;4357500;33;20156;-78
2021/08/18 14:23:30;;;;;;;6.60;2.97;;;;;;;;;;4356070;33;20585;-77
2021/08/18 14:25:56;;;;;;;5.10;3.05;;;;;;;;;;4363559;32;20290;-77
2021/08/18 14:28:32;;;;;;;3.70;2.62;;;;;;;;;;4345723;33;20201;-78
2021/08/18 14:31:18;;;;;;;5.37;2.92;;;;;;;;;;4347274;33;20201;-78
2021/08/18 14:34:12;;;;;;;5.68;2.70;;;;;;;;;;4360383;32;20225;-76
2021/08/18 14:36:38;;;;;;;6.90;2.37;;;;;;;;;;4332680;32;20202;-77
2021/08/18 14:39:03;;;;;;;4.90;2.33;;;;;;;;;;4372636;32;20489;-77
2021/08/18 14:41:30;;;;;;;6.80;2.55;;;;;;;;;;4348231;33;20513;-78
2021/08/18 14:44:04;;;;;;;5.72;2.33;;;;;;;;;;4333251;33;20160;-78
2021/08/18 14:46:29;;;;;;;4.65;2.33;;;;;;;;;;4333417;33;20193;-78
2021/08/18 14:49:04;;;;;;;3.83;2.25;;;;;;;;;;4332476;33;20163;-77
2021/08/18 14:52:15;;;;;;;6.20;2.85;;;;;;;;;;4356976;32;20166;-78
2021/08/18 14:54:16;;;;;;;5.55;2.50;;;;;;;;;;4352448;33;20559;-78
2021/08/18 14:56:50;;;;;;;3.45;2.30;;;;;;;;;;4346393;33;20205;-77
2021/08/18 14:59:30;;;;;;;5.22;2.70;;;;;;;;;;4359550;33;20321;-77
2021/08/18 15:01:55;;;;;;;3.60;2.87;;;;;;;;;;4333773;33;20184;-77
2021/08/18 15:04:23;;;;;;;6.43;2.87;;;;;;;;;;4342487;33;20170;-78
2021/08/18 15:06:51;;;;;;;4.78;2.90;;;;;;;;;;4346411;33;20345;-78
2021/08/18 15:09:16;;;;;;;4.68;2.80;;;;;;;;;;4346748;33;20198;-78
2021/08/18 15:11:58;;;;;;;;;;;;;;;;;;;;;
2021/08/18 15:14:26;;;;;;;4.75;2.95;;;;;;;;;;4360044;33;20186;-78
2021/08/18 15:17:01;;;;;;;8.05;3.05;;;;;;;;;;4346221;33;20183;-78
2021/08/18 15:19:52;;;;;;;5.60;3.30;;;;;;;;;;4341436;33;20213;-79
2021/08/18 15:22:18;;;;;;;4.57;3.20;;;;;;;;;;4345643;33;20624;-78
2021/08/18 15:24:43;;;;;;;6.70;3.15;;;;;;;;;;4354289;32;20190;-77
2021/08/18 15:27:08;;;;;;;6.72;3.22;;;;;;;;;;4335524;33;20174;-77
2021/08/18 15:29:34;;;;;;;4.70;3.22;;;;;;;;;;4346366;33;20174;-79
2021/08/18 15:32:06;;;;;;;5.78;3.35;;;;;;;;;;4332590;33;20171;-80
2021/08/18 15:34:35;;;;;;;8.18;3.42;;;;;;;;;;4329558;33;20179;-77
2021/08/18 15:37:11;;;;;;;5.00;2.85;;;;;;;;;;4329399;33;20190;-78
2021/08/18 15:39:55;;;;;;;5.87;3.25;;;;;;;;;;4330309;33;20195;-78
2021/08/18 15:42:27;;;;;;;6.03;2.97;;;;;;;;;;4346614;33;20159;-77
2021/08/18 15:44:52;;;;;;;5.82;2.83;;;;;;;;;;4341816;33;20174;-77
2021/08/18 15:47:17;;;;;;;7.95;2.92;;;;;;;;;;4329684;33;20182;-77
2021/08/18 15:49:43;;;;;;;6.45;3.17;;;;;;;;;;4329188;33;20159;-78
2021/08/18 15:52:09;;;;;;;4.57;2.70;;;;;;;;;;4338262;33;20210;-77
2021/08/18 15:54:34;;;;;;;5.45;3.35;;;;;;;;;;4344565;33;20474;-78
2021/08/18 15:57:02;;;;;;;4.90;3.40;;;;;;;;;;4355912;33;20175;-78
2021/08/18 15:59:27;;;;;;;5.72;3.05;;;;;;;;;;4356235;33;20174;-78
2021/08/18 16:02:01;;;;;;;6.15;3.70;;;;;;;;;;4344530;33;20578;-78
2021/08/18 16:04:27;;;;;;;6.25;3.47;;;;;;;;;;4344272;33;20281;-78
2021/08/18 16:06:56;;;;;;;5.78;3.60;;;;;;;;;;4343397;33;20175;-77
2021/08/18 16:09:21;;;;;;;5.62;2.70;;;;;;;;;;4341645;33;20156;-77
2021/08/18 16:11:50;;;;;;;5.10;3.50;;;;;;;;;;4342895;33;20604;-77
2021/08/18 16:14:21;;;;;;;6.05;3.47;;;;;;;;;;4344963;33;20233;-78
2021/08/18 16:16:55;;;;;;;6.82;3.35;;;;;;;;;;4344151;33;20194;-77
2021/08/18 16:22:35;;;;;;;9.68;3.85;;;;;;;;;;4319479;33;20178;-78
2021/08/18 16:25:13;;;;;;;6.43;4.03;;;;;;;;;;4356746;33;20160;-77
2021/08/18 16:27:44;;;;;;;6.85;4.15;;;;;;;;;;4356546;32;20167;-78
2021/08/18 16:30:22;;;;;;;9.70;4.15;;;;;;;;;;4358731;32;20182;-78
2021/08/18 16:32:47;;;;;;;7.72;4.25;;;;;;;;;;4346270;33;20191;-78
2021/08/18 16:35:16;;;;;;;6.47;4.25;;;;;;;;;;4353475;33;20198;-77
2021/08/18 16:37:42;;;;;;;7.18;3.95;;;;;;;;;;4332302;33;20197;-76
2021/08/18 16:43:36;;;;;;;6.37;4.43;;;;;;;;;;4320130;33;20222;-77
2021/08/18 16:46:02;;;;;;;6.57;4.00;;;;;;;;;;4340973;33;20163;-77
2021/08/18 16:48:47;;;;;;;;;;;;;;;;;;;;;
2021/08/18 16:51:16;;;;;;;5.80;4.25;;;;;;;;;;4348180;33;20158;-79
2021/08/18 16:53:44;;;;;;;7.57;4.57;;;;;;;;;;4358586;33;20148;-78
2021/08/18 16:56:10;;;;;;;7.93;4.35;;;;;;;;;;4358664;33;20159;-78
2021/08/18 16:59:02;;;;;;;7.45;4.50;;;;;;;;;;4346611;33;20205;-79
2021/08/18 17:02:07;;;;;;;6.82;3.92;;;;;;;;;;4346834;33;20275;-77
2021/08/18 17:04:54;;;;;;;6.00;3.42;;;;;;;;;;4339637;33;20234;-77
2021/08/18 17:07:35;;;;;;;6.53;3.60;;;;;;;;;;4331643;33;20181;-77
2021/08/18 17:10:03;;;;;;;7.82;4.20;;;;;;;;;;4332264;33;20147;-77
2021/08/18 17:12:52;;;;;;;7.07;4.07;;;;;;;;;;4331380;33;20231;-77
2021/08/18 17:15:31;;;;;;;;;;;;;;;;;;;;;
2021/08/18 17:18:18;;;;;;;;;;;;;;;;;;;;;
2021/08/18 17:20:49;;;;;;;5.60;3.95;;;;;;;;;;4347457;33;20143;-78
2021/08/18 17:23:20;;;;;;;6.62;4.32;;;;;;;;;;4353653;32;20168;-76
2021/08/18 17:25:55;;;;;;;8.18;5.10;;;;;;;;;;4358831;32;20198;-78
2021/08/18 17:28:20;;;;;;;6.95;4.95;;;;;;;;;;4345859;33;20166;-78
2021/08/18 17:30:48;;;;;;;7.78;5.12;;;;;;;;;;4358212;32;20275;-78
2021/08/18 17:33:26;;;;;;;;;;;;;;;;;;;;;
2021/08/18 17:36:22;;;;;;;9.63;5.03;;;;;;;;;;4340622;33;20159;-78
2021/08/18 17:38:50;;;;;;;6.80;5.43;;;;;;;;;;4338188;33;20222;-78
2021/08/18 17:41:21;;;;;;;8.10;4.47;;;;;;;;;;4348355;33;20159;-79
2021/08/18 17:43:46;;;;;;;10.23;5.75;;;;;;;;;;4348098;33;20270;-78
2021/08/18 17:46:18;;;;;;;8.80;5.37;;;;;;;;;;4343781;32;20242;-78
2021/08/18 17:48:43;;;;;;;8.25;5.65;;;;;;;;;;4333803;33;20167;-77
2021/08/18 17:51:08;;;;;;;11.45;6.00;;;;;;;;;;4333467;33;20197;-78
2021/08/18 17:53:50;;;;;;;8.23;6.47;;;;;;;;;;4333185;33;20190;-78
2021/08/18 17:56:16;;;;;;;12.20;5.97;;;;;;;;;;4333369;33;20190;-77
2021/08/18 17:58:41;;;;;;;10.27;6.20;;;;;;;;;;4333352;33;20155;-77
2021/08/18 18:01:16;;;;;;;8.70;6.35;;;;;;;;;;4344272;33;20194;-77
2021/08/18 18:03:50;;;;;;;11.85;6.75;;;;;;;;;;4348531;33;20174;-77
2021/08/18 18:06:25;;;;;;;9.45;6.50;;;;;;;;;;4339486;33;20584;-77
2021/08/18 18:08:51;;;;;;;11.05;6.78;;;;;;;;;;4333463;33;20170;-78
2021/08/18 18:11:25;;;;;;;13.90;7.30;;;;;;;;;;4333493;33;20179;-78
2021/08/18 18:13:51;;;;;;;8.18;5.95;;;;;;;;;;4333564;33;20158;-79
2021/08/18 18:16:16;;;;;;;11.48;5.72;;;;;;;;;;4335998;33;20230;-78
2021/08/18 18:21:49;;;;;;;9.50;6.30;;;;;;;;;;4346966;33;20150;-78
2021/08/18 18:24:30;;;;;;;;;;;;;;;;;;;;;
2021/08/18 18:27:16;;;;;;;9.50;6.12;;;;;;;;;;4325110;33;20525;-77
2021/08/18 18:35:40;;;;;;;10.20;6.03;;;;;;;;;;4346191;33;20218;-78
2021/08/18 18:41:35;;;;;;;9.07;4.87;;;;;;;;;;4325360;33;20221;-78
2021/08/18 18:44:56;;;;;;;11.50;5.78;;;;;;;;;;4330119;33;20160;-80
2021/08/18 18:47:00;;;;;;;7.90;5.30;;;;;;;;;;4321774;33;20229;-77
2021/08/18 18:49:48;;;;;;;;;;;;;;;;;;;;;
2021/08/18 18:52:32;;;;;;;12.23;5.85;;;;;;;;;;4345729;33;20171;-78
2021/08/18 18:55:08;;;;;;;9.75;5.82;;;;;;;;;;4346239;33;20197;-77
2021/08/18 18:57:36;;;;;;;7.97;5.50;;;;;;;;;;4344966;33;20167;-78
2021/08/18 19:00:13;;;;;;;9.68;6.12;;;;;;;;;;4336301;33;20147;-77
2021/08/18 19:02:42;;;;;;;10.43;5.40;;;;;;;;;;4336062;33;20148;-78
2021/08/18 19:08:43;;;;;;;9.00;5.60;;;;;;;;;;4345037;33;20158;-78
2021/08/18 19:14:44;;;;;;;10.68;6.18;;;;;;;;;;4346665;33;20570;-78
2021/08/18 19:17:09;;;;;;;10.60;6.70;;;;;;;;;;4359180;33;20166;-77
2021/08/18 19:19:44;;;;;;;11.90;6.93;;;;;;;;;;4359673;32;20211;-79
2021/08/18 19:22:12;;;;;;;11.48;7.78;;;;;;;;;;4347078;33;20158;-78
2021/08/18 19:24:40;;;;;;;11.82;7.03;;;;;;;;;;4355598;32;20202;-78
2021/08/18 19:27:09;;;;;;;11.85;6.65;;;;;;;;;;4331158;33;20144;-78
2021/08/18 19:29:37;;;;;;;12.68;7.93;;;;;;;;;;4330051;33;20489;-77
2021/08/18 19:32:06;;;;;;;15.68;8.52;;;;;;;;;;4333380;33;20167;-78
2021/08/18 19:34:48;;;;;;;14.10;7.20;;;;;;;;;;4344236;33;20518;-78
2021/08/18 19:37:16;;;;;;;12.80;6.87;;;;;;;;;;4337570;33;20167;-78
2021/08/18 19:39:56;;;;;;;11.02;6.75;;;;;;;;;;4329570;33;20240;-77
2021/08/18 19:42:22;;;;;;;10.73;6.35;;;;;;;;;;4328954;33;20160;-78
2021/08/18 19:44:58;;;;;;;11.02;6.25;;;;;;;;;;4329490;33;20218;-79
2021/08/18 19:47:24;;;;;;;10.98;6.12;;;;;;;;;;4329551;33;20183;-78
2021/08/18 19:49:55;;;;;;;10.52;6.70;;;;;;;;;;4331117;33;20616;-78
2021/08/18 19:52:22;;;;;;;9.73;6.03;;;;;;;;;;4341205;33;20155;-77
2021/08/18 19:54:50;;;;;;;9.52;6.35;;;;;;;;;;4336427;33;20631;-79
2021/08/18 19:57:16;;;;;;;13.02;6.85;;;;;;;;;;4329324;33;20185;-78
2021/08/18 20:02:37;;;;;;;11.43;7.28;;;;;;;;;;4319868;33;20187;-80
2021/08/18 20:05:06;;;;;;;11.95;6.07;;;;;;;;;;4334328;33;20182;-78
2021/08/18 20:07:31;;;;;;;12.57;7.20;;;;;;;;;;4334501;33;20607;-78
2021/08/18 20:10:00;;;;;;;12.13;7.00;;;;;;;;;;4334664;33;20194;-78
2021/08/18 20:12:28;;;;;;;9.43;6.25;;;;;;;;;;4344031;33;20475;-78
2021/08/18 20:14:57;;;;;;;10.90;6.82;;;;;;;;;;4361580;32;20170;-78
2021/08/18 20:17:22;;;;;;;9.60;5.55;;;;;;;;;;4348620;33;20147;-77
2021/08/18 20:19:47;;;;;;;7.25;5.30;;;;;;;;;;4349413;33;20246;-78
2021/08/18 20:22:13;;;;;;;8.32;5.60;;;;;;;;;;4349317;33;20152;-79
2021/08/18 20:24:38;;;;;;;7.60;4.87;;;;;;;;;;4348873;33;20581;-78
2021/08/18 20:27:03;;;;;;;9.60;4.85;;;;;;;;;;4349856;33;20590;-78
2021/08/18 20:29:29;;;;;;;12.40;4.97;;;;;;;;;;4350401;32;20480;-78
2021/08/18 20:31:54;;;;;;;10.27;4.37;;;;;;;;;;4348796;33;20183;-78
2021/08/18 20:34:21;;;;;;;9.35;4.90;;;;;;;;;;4349196;33;20232;-78
2021/08/18 20:36:47;;;;;;;7.43;4.12;;;;;;;;;;4361120;32;20186;-78
2021/08/18 20:39:13;;;;;;;8.30;4.47;;;;;;;;;;4361144;33;20198;-79
2021/08/18 20:41:38;;;;;;;8.50;4.53;;;;;;;;;;4361828;32;20151;-77
2021/08/18 20:44:04;;;;;;;7.20;4.32;;;;;;;;;;4335224;33;20160;-77
2021/08/18 20:46:30;;;;;;;6.40;4.57;;;;;;;;;;4334127;33;20155;-77
2021/08/18 20:48:56;;;;;;;6.68;4.00;;;;;;;;;;4335542;33;20163;-78
2021/08/18 20:51:21;;;;;;;5.68;3.60;;;;;;;;;;4348697;33;20152;-77
2021/08/18 20:53:46;;;;;;;8.15;4.15;;;;;;;;;;4348615;33;20198;-77
2021/08/18 20:56:11;;;;;;;10.52;4.70;;;;;;;;;;4349099;33;20241;-77
2021/08/18 20:58:37;;;;;;;7.05;4.60;;;;;;;;;;4348865;33;20273;-77
2021/08/18 21:01:05;;;;;;;6.32;4.37;;;;;;;;;;4348800;33;20182;-77
2021/08/18 21:03:30;;;;;;;7.47;4.70;;;;;;;;;;4349051;33;20206;-77
2021/08/18 21:05:55;;;;;;;8.38;4.70;;;;;;;;;;4348839;33;20154;-79
2021/08/18 21:08:20;;;;;;;8.50;4.43;;;;;;;;;;4349079;33;20159;-78
2021/08/18 21:10:45;;;;;;;7.60;4.30;;;;;;;;;;4348691;33;20594;-77
2021/08/18 21:13:11;;;;;;;6.47;4.97;;;;;;;;;;4348525;33;20473;-79
2021/08/18 21:15:39;;;;;;;7.68;4.80;;;;;;;;;;4346398;33;20198;-79
2021/08/18 21:18:14;;;;;;;8.30;4.70;;;;;;;;;;4344026;33;20156;-78
2021/08/18 21:20:39;;;;;;;9.32;4.80;;;;;;;;;;4359272;32;20568;-78
2021/08/18 21:23:05;;;;;;;9.75;4.90;;;;;;;;;;4358736;32;20592;-78
2021/08/18 21:25:30;;;;;;;10.18;5.12;;;;;;;;;;4346336;33;20156;-78
2021/08/18 21:27:57;;;;;;;9.15;5.07;;;;;;;;;;4346196;33;20623;-78
2021/08/18 21:30:22;;;;;;;9.02;5.50;;;;;;;;;;4346425;33;20719;-78
2021/08/18 21:32:47;;;;;;;7.72;5.30;;;;;;;;;;4346826;32;20159;-77
2021/08/18 21:35:13;;;;;;;9.50;5.55;;;;;;;;;;4345581;33;20642;-77